sensor_id;sensor_type;location;lat;lon;timestamp;P1;durP1;ratioP1;P2;durP2;ratioP2
12228;SDS011;6177;52.402;9.800;2023-05-24T00:00:15;10.20;;;3.53;;
12228;SDS011;6177;52.402;9.800;2023-05-24T00:02:41;11.73;;;3.60;;
12228;SDS011;6177;52.402;9.800;2023-05-24T00:05:09;12.23;;;3.50;;
12228;SDS011;6177;52.402;9.800;2023-05-24T00:07:35;9.83;;;3.70;;
12228;SDS011;6177;52.402;9.800;2023-05-24T00:10:02;11.30;;;3.90;;
12228;SDS011;6177;52.402;9.800;2023-05-24T00:12:28;9.20;;;4.00;;
12228;SDS011;6177;52.402;9.800;2023-05-24T00:14:54;9.77;;;2.93;;
12228;SDS011;6177;52.402;9.800;2023-05-24T00:17:19;7.37;;;3.83;;
12228;SDS011;6177;52.402;9.800;2023-05-24T00:19:45;12.37;;;4.07;;
12228;SDS011;6177;52.402;9.800;2023-05-24T00:22:17;9.50;;;3.70;;
12228;SDS011;6177;52.402;9.800;2023-05-24T00:24:45;14.80;;;4.17;;
12228;SDS011;6177;52.402;9.800;2023-05-24T00:27:12;8.77;;;3.53;;
12228;SDS011;6177;52.402;9.800;2023-05-24T00:29:38;10.40;;;3.57;;
12228;SDS011;6177;52.402;9.800;2023-05-24T00:32:04;8.97;;;3.67;;
12228;SDS011;6177;52.402;9.800;2023-05-24T00:34:29;13.47;;;4.20;;
12228;SDS011;6177;52.402;9.800;2023-05-24T00:36:55;10.03;;;4.37;;
12228;SDS011;6177;52.402;9.800;2023-05-24T00:39:22;12.10;;;4.40;;
12228;SDS011;6177;52.402;9.800;2023-05-24T00:41:47;10.97;;;3.83;;
12228;SDS011;6177;52.402;9.800;2023-05-24T00:44:13;11.37;;;4.27;;
12228;SDS011;6177;52.402;9.800;2023-05-24T00:46:39;17.27;;;4.27;;
12228;SDS011;6177;52.402;9.800;2023-05-24T00:49:05;12.50;;;4.60;;
12228;SDS011;6177;52.402;9.800;2023-05-24T00:51:31;9.37;;;4.10;;
12228;SDS011;6177;52.402;9.800;2023-05-24T00:53:58;9.47;;;3.70;;
12228;SDS011;6177;52.402;9.800;2023-05-24T00:56:23;8.03;;;3.33;;
12228;SDS011;6177;52.402;9.800;2023-05-24T00:58:50;11.07;;;4.40;;
12228;SDS011;6177;52.402;9.800;2023-05-24T01:01:18;12.77;;;4.47;;
12228;SDS011;6177;52.402;9.800;2023-05-24T01:03:44;8.93;;;3.77;;
12228;SDS011;6177;52.402;9.800;2023-05-24T01:06:11;10.60;;;3.60;;
12228;SDS011;6177;52.402;9.800;2023-05-24T01:11:05;14.67;;;5.20;;
12228;SDS011;6177;52.402;9.800;2023-05-24T01:13:57;9.93;;;3.87;;
12228;SDS011;6177;52.402;9.800;2023-05-24T01:17:11;10.13;;;3.97;;
12228;SDS011;6177;52.402;9.800;2023-05-24T01:24:40;10.63;;;4.30;;
12228;SDS011;6177;52.402;9.800;2023-05-24T01:27:13;11.87;;;3.93;;
12228;SDS011;6177;52.402;9.800;2023-05-24T01:29:39;13.10;;;4.47;;
12228;SDS011;6177;52.402;9.800;2023-05-24T01:32:05;11.77;;;4.20;;
12228;SDS011;6177;52.402;9.800;2023-05-24T01:34:31;12.23;;;4.10;;
12228;SDS011;6177;52.402;9.800;2023-05-24T01:36:57;11.47;;;4.43;;
12228;SDS011;6177;52.402;9.800;2023-05-24T01:39:26;10.23;;;4.20;;
12228;SDS011;6177;52.402;9.800;2023-05-24T01:44:22;11.20;;;4.80;;
12228;SDS011;6177;52.402;9.800;2023-05-24T01:46:53;15.03;;;4.77;;
12228;SDS011;6177;52.402;9.800;2023-05-24T01:49:25;13.43;;;4.57;;
12228;SDS011;6177;52.402;9.800;2023-05-24T01:54:32;15.07;;;5.00;;
12228;SDS011;6177;52.402;9.800;2023-05-24T01:56:58;16.23;;;5.97;;
12228;SDS011;6177;52.402;9.800;2023-05-24T01:59:26;18.40;;;4.93;;
12228;SDS011;6177;52.402;9.800;2023-05-24T02:01:53;15.07;;;4.70;;
12228;SDS011;6177;52.402;9.800;2023-05-24T02:04:19;16.53;;;4.97;;
12228;SDS011;6177;52.402;9.800;2023-05-24T02:06:44;14.27;;;5.60;;
12228;SDS011;6177;52.402;9.800;2023-05-24T02:09:10;18.43;;;4.93;;
12228;SDS011;6177;52.402;9.800;2023-05-24T02:11:35;15.67;;;5.27;;
12228;SDS011;6177;52.402;9.800;2023-05-24T02:14:01;16.43;;;5.20;;
12228;SDS011;6177;52.402;9.800;2023-05-24T02:16:26;13.73;;;4.50;;
12228;SDS011;6177;52.402;9.800;2023-05-24T02:18:57;12.53;;;4.87;;
12228;SDS011;6177;52.402;9.800;2023-05-24T02:21:23;13.87;;;4.90;;
12228;SDS011;6177;52.402;9.800;2023-05-24T02:23:49;14.97;;;5.90;;
12228;SDS011;6177;52.402;9.800;2023-05-24T02:26:15;16.13;;;5.70;;
12228;SDS011;6177;52.402;9.800;2023-05-24T02:28:43;12.90;;;4.87;;
12228;SDS011;6177;52.402;9.800;2023-05-24T02:31:08;14.27;;;5.30;;
12228;SDS011;6177;52.402;9.800;2023-05-24T02:33:35;15.60;;;5.73;;
12228;SDS011;6177;52.402;9.800;2023-05-24T02:36:00;17.87;;;5.40;;
12228;SDS011;6177;52.402;9.800;2023-05-24T02:38:26;17.07;;;5.60;;
12228;SDS011;6177;52.402;9.800;2023-05-24T02:40:51;23.43;;;6.03;;
12228;SDS011;6177;52.402;9.800;2023-05-24T02:43:17;21.43;;;5.50;;
12228;SDS011;6177;52.402;9.800;2023-05-24T02:45:42;19.00;;;4.70;;
12228;SDS011;6177;52.402;9.800;2023-05-24T02:48:08;17.10;;;5.30;;
12228;SDS011;6177;52.402;9.800;2023-05-24T02:50:34;13.80;;;4.97;;
12228;SDS011;6177;52.402;9.800;2023-05-24T02:53:01;14.33;;;5.77;;
12228;SDS011;6177;52.402;9.800;2023-05-24T02:55:26;16.83;;;5.47;;
12228;SDS011;6177;52.402;9.800;2023-05-24T02:57:53;15.57;;;5.00;;
12228;SDS011;6177;52.402;9.800;2023-05-24T03:00:19;13.50;;;5.13;;
12228;SDS011;6177;52.402;9.800;2023-05-24T03:02:45;12.50;;;5.20;;
12228;SDS011;6177;52.402;9.800;2023-05-24T03:05:15;12.80;;;5.50;;
12228;SDS011;6177;52.402;9.800;2023-05-24T03:07:42;15.00;;;5.53;;
12228;SDS011;6177;52.402;9.800;2023-05-24T03:10:08;19.67;;;5.60;;
12228;SDS011;6177;52.402;9.800;2023-05-24T03:12:33;17.57;;;5.60;;
12228;SDS011;6177;52.402;9.800;2023-05-24T03:14:59;22.53;;;5.27;;
12228;SDS011;6177;52.402;9.800;2023-05-24T03:17:25;16.60;;;5.53;;
12228;SDS011;6177;52.402;9.800;2023-05-24T03:19:50;18.23;;;5.73;;
12228;SDS011;6177;52.402;9.800;2023-05-24T03:22:17;14.87;;;5.40;;
12228;SDS011;6177;52.402;9.800;2023-05-24T03:24:43;19.17;;;6.13;;
12228;SDS011;6177;52.402;9.800;2023-05-24T03:27:10;17.77;;;5.17;;
12228;SDS011;6177;52.402;9.800;2023-05-24T03:29:36;19.63;;;5.87;;
12228;SDS011;6177;52.402;9.800;2023-05-24T03:32:02;13.23;;;5.40;;
12228;SDS011;6177;52.402;9.800;2023-05-24T03:34:27;15.70;;;5.67;;
12228;SDS011;6177;52.402;9.800;2023-05-24T03:36:54;16.50;;;5.70;;
12228;SDS011;6177;52.402;9.800;2023-05-24T03:39:20;18.70;;;5.80;;
12228;SDS011;6177;52.402;9.800;2023-05-24T03:41:53;16.10;;;5.57;;
12228;SDS011;6177;52.402;9.800;2023-05-24T03:44:19;13.80;;;5.17;;
12228;SDS011;6177;52.402;9.800;2023-05-24T03:46:44;15.73;;;6.40;;
12228;SDS011;6177;52.402;9.800;2023-05-24T03:49:10;20.10;;;5.73;;
12228;SDS011;6177;52.402;9.800;2023-05-24T03:51:36;18.90;;;6.10;;
12228;SDS011;6177;52.402;9.800;2023-05-24T03:54:02;19.43;;;6.33;;
12228;SDS011;6177;52.402;9.800;2023-05-24T03:56:27;12.73;;;5.67;;
12228;SDS011;6177;52.402;9.800;2023-05-24T03:58:53;15.50;;;6.10;;
12228;SDS011;6177;52.402;9.800;2023-05-24T04:01:18;19.63;;;6.63;;
12228;SDS011;6177;52.402;9.800;2023-05-24T04:03:44;20.07;;;5.87;;
12228;SDS011;6177;52.402;9.800;2023-05-24T04:06:11;14.77;;;5.43;;
12228;SDS011;6177;52.402;9.800;2023-05-24T04:08:37;17.87;;;6.33;;
12228;SDS011;6177;52.402;9.800;2023-05-24T04:11:03;19.40;;;6.33;;
12228;SDS011;6177;52.402;9.800;2023-05-24T04:13:29;15.10;;;6.00;;
12228;SDS011;6177;52.402;9.800;2023-05-24T04:15:55;16.73;;;6.00;;
12228;SDS011;6177;52.402;9.800;2023-05-24T04:18:20;18.90;;;6.10;;
12228;SDS011;6177;52.402;9.800;2023-05-24T04:20:46;15.87;;;5.50;;
12228;SDS011;6177;52.402;9.800;2023-05-24T04:23:11;15.57;;;6.33;;
12228;SDS011;6177;52.402;9.800;2023-05-24T04:25:37;16.53;;;6.00;;
12228;SDS011;6177;52.402;9.800;2023-05-24T04:28:03;16.90;;;5.60;;
12228;SDS011;6177;52.402;9.800;2023-05-24T04:30:31;15.97;;;5.97;;
12228;SDS011;6177;52.402;9.800;2023-05-24T04:32:57;12.83;;;5.20;;
12228;SDS011;6177;52.402;9.800;2023-05-24T04:35:23;19.27;;;5.63;;
12228;SDS011;6177;52.402;9.800;2023-05-24T04:37:50;21.67;;;6.50;;
12228;SDS011;6177;52.402;9.800;2023-05-24T04:40:18;13.43;;;5.57;;
12228;SDS011;6177;52.402;9.800;2023-05-24T04:42:47;11.00;;;5.87;;
12228;SDS011;6177;52.402;9.800;2023-05-24T04:45:12;19.50;;;5.60;;
12228;SDS011;6177;52.402;9.800;2023-05-24T04:47:38;19.53;;;6.23;;
12228;SDS011;6177;52.402;9.800;2023-05-24T04:50:04;13.87;;;5.40;;
12228;SDS011;6177;52.402;9.800;2023-05-24T04:52:30;13.50;;;5.70;;
12228;SDS011;6177;52.402;9.800;2023-05-24T04:54:57;20.33;;;6.40;;
12228;SDS011;6177;52.402;9.800;2023-05-24T04:57:23;14.77;;;5.83;;
12228;SDS011;6177;52.402;9.800;2023-05-24T04:59:48;18.30;;;6.13;;
12228;SDS011;6177;52.402;9.800;2023-05-24T05:02:14;13.47;;;5.20;;
12228;SDS011;6177;52.402;9.800;2023-05-24T05:04:39;15.67;;;6.27;;
12228;SDS011;6177;52.402;9.800;2023-05-24T05:07:05;17.03;;;5.70;;
12228;SDS011;6177;52.402;9.800;2023-05-24T05:09:32;16.80;;;6.57;;
12228;SDS011;6177;52.402;9.800;2023-05-24T05:11:57;12.53;;;5.33;;
12228;SDS011;6177;52.402;9.800;2023-05-24T05:14:24;16.13;;;5.93;;
12228;SDS011;6177;52.402;9.800;2023-05-24T05:16:49;16.13;;;5.73;;
12228;SDS011;6177;52.402;9.800;2023-05-24T05:19:15;11.53;;;4.43;;
12228;SDS011;6177;52.402;9.800;2023-05-24T05:21:40;13.40;;;5.53;;
12228;SDS011;6177;52.402;9.800;2023-05-24T05:24:06;12.93;;;5.60;;
12228;SDS011;6177;52.402;9.800;2023-05-24T05:26:32;15.70;;;6.63;;
12228;SDS011;6177;52.402;9.800;2023-05-24T05:28:57;16.20;;;6.03;;
12228;SDS011;6177;52.402;9.800;2023-05-24T05:31:23;15.00;;;5.83;;
12228;SDS011;6177;52.402;9.800;2023-05-24T05:33:48;14.20;;;5.20;;
12228;SDS011;6177;52.402;9.800;2023-05-24T05:36:14;16.93;;;5.67;;
12228;SDS011;6177;52.402;9.800;2023-05-24T05:38:40;13.67;;;5.40;;
12228;SDS011;6177;52.402;9.800;2023-05-24T05:41:05;19.30;;;5.43;;
12228;SDS011;6177;52.402;9.800;2023-05-24T05:43:31;15.83;;;6.13;;
12228;SDS011;6177;52.402;9.800;2023-05-24T05:45:57;16.20;;;5.73;;
12228;SDS011;6177;52.402;9.800;2023-05-24T05:48:22;21.17;;;7.27;;
12228;SDS011;6177;52.402;9.800;2023-05-24T05:50:48;16.90;;;5.93;;
12228;SDS011;6177;52.402;9.800;2023-05-24T05:53:14;18.33;;;5.90;;
12228;SDS011;6177;52.402;9.800;2023-05-24T05:55:40;17.50;;;6.13;;
12228;SDS011;6177;52.402;9.800;2023-05-24T05:58:05;16.33;;;5.67;;
12228;SDS011;6177;52.402;9.800;2023-05-24T06:00:31;13.83;;;5.13;;
12228;SDS011;6177;52.402;9.800;2023-05-24T06:02:56;18.13;;;5.60;;
12228;SDS011;6177;52.402;9.800;2023-05-24T06:05:23;15.37;;;6.03;;
12228;SDS011;6177;52.402;9.800;2023-05-24T06:07:48;16.73;;;6.37;;
12228;SDS011;6177;52.402;9.800;2023-05-24T06:10:15;17.87;;;6.33;;
12228;SDS011;6177;52.402;9.800;2023-05-24T06:12:41;16.63;;;5.63;;
12228;SDS011;6177;52.402;9.800;2023-05-24T06:15:07;18.47;;;6.70;;
12228;SDS011;6177;52.402;9.800;2023-05-24T06:17:33;11.50;;;5.30;;
12228;SDS011;6177;52.402;9.800;2023-05-24T06:19:59;11.87;;;5.43;;
12228;SDS011;6177;52.402;9.800;2023-05-24T06:22:25;14.07;;;5.83;;
12228;SDS011;6177;52.402;9.800;2023-05-24T06:24:52;13.67;;;5.83;;
12228;SDS011;6177;52.402;9.800;2023-05-24T06:27:18;9.30;;;4.10;;
12228;SDS011;6177;52.402;9.800;2023-05-24T06:29:43;17.83;;;5.60;;
12228;SDS011;6177;52.402;9.800;2023-05-24T06:32:09;15.07;;;5.97;;
12228;SDS011;6177;52.402;9.800;2023-05-24T06:34:35;13.43;;;4.80;;
12228;SDS011;6177;52.402;9.800;2023-05-24T06:37:00;14.63;;;5.50;;
12228;SDS011;6177;52.402;9.800;2023-05-24T06:39:26;15.93;;;5.50;;
12228;SDS011;6177;52.402;9.800;2023-05-24T06:41:52;14.30;;;5.77;;
12228;SDS011;6177;52.402;9.800;2023-05-24T06:44:22;12.67;;;5.23;;
12228;SDS011;6177;52.402;9.800;2023-05-24T06:46:54;14.80;;;5.30;;
12228;SDS011;6177;52.402;9.800;2023-05-24T06:49:20;13.60;;;5.07;;
12228;SDS011;6177;52.402;9.800;2023-05-24T06:51:46;12.90;;;5.77;;
12228;SDS011;6177;52.402;9.800;2023-05-24T06:54:11;13.47;;;5.20;;
12228;SDS011;6177;52.402;9.800;2023-05-24T06:56:37;15.73;;;5.87;;
12228;SDS011;6177;52.402;9.800;2023-05-24T06:59:02;13.77;;;5.07;;
12228;SDS011;6177;52.402;9.800;2023-05-24T07:01:28;13.57;;;4.97;;
12228;SDS011;6177;52.402;9.800;2023-05-24T07:03:53;14.63;;;4.97;;
12228;SDS011;6177;52.402;9.800;2023-05-24T07:06:19;15.53;;;5.20;;
12228;SDS011;6177;52.402;9.800;2023-05-24T07:08:45;8.97;;;4.23;;
12228;SDS011;6177;52.402;9.800;2023-05-24T07:11:10;13.93;;;5.33;;
12228;SDS011;6177;52.402;9.800;2023-05-24T07:13:36;10.27;;;4.77;;
12228;SDS011;6177;52.402;9.800;2023-05-24T07:16:02;16.03;;;6.20;;
12228;SDS011;6177;52.402;9.800;2023-05-24T07:18:27;12.50;;;5.60;;
12228;SDS011;6177;52.402;9.800;2023-05-24T07:20:53;10.30;;;4.80;;
12228;SDS011;6177;52.402;9.800;2023-05-24T07:23:18;12.43;;;4.43;;
12228;SDS011;6177;52.402;9.800;2023-05-24T07:25:44;11.83;;;4.77;;
12228;SDS011;6177;52.402;9.800;2023-05-24T07:28:10;12.23;;;4.03;;
12228;SDS011;6177;52.402;9.800;2023-05-24T07:30:35;14.57;;;4.80;;
12228;SDS011;6177;52.402;9.800;2023-05-24T07:33:02;13.67;;;4.60;;
12228;SDS011;6177;52.402;9.800;2023-05-24T07:35:28;13.63;;;4.80;;
12228;SDS011;6177;52.402;9.800;2023-05-24T07:37:55;15.67;;;5.27;;
12228;SDS011;6177;52.402;9.800;2023-05-24T07:40:20;12.70;;;4.97;;
12228;SDS011;6177;52.402;9.800;2023-05-24T07:42:47;8.90;;;4.40;;
12228;SDS011;6177;52.402;9.800;2023-05-24T07:45:12;15.17;;;6.03;;
12228;SDS011;6177;52.402;9.800;2023-05-24T07:47:39;11.13;;;4.30;;
12228;SDS011;6177;52.402;9.800;2023-05-24T07:50:05;10.97;;;4.73;;
12228;SDS011;6177;52.402;9.800;2023-05-24T07:52:31;17.80;;;5.40;;
12228;SDS011;6177;52.402;9.800;2023-05-24T07:54:56;14.17;;;6.03;;
12228;SDS011;6177;52.402;9.800;2023-05-24T07:57:22;12.20;;;5.00;;
12228;SDS011;6177;52.402;9.800;2023-05-24T07:59:47;16.70;;;5.53;;
12228;SDS011;6177;52.402;9.800;2023-05-24T08:02:13;14.50;;;5.27;;
12228;SDS011;6177;52.402;9.800;2023-05-24T08:04:41;11.73;;;4.93;;
12228;SDS011;6177;52.402;9.800;2023-05-24T08:07:06;18.87;;;6.07;;
12228;SDS011;6177;52.402;9.800;2023-05-24T08:09:32;14.10;;;5.47;;
12228;SDS011;6177;52.402;9.800;2023-05-24T08:12:03;13.90;;;6.20;;
12228;SDS011;6177;52.402;9.800;2023-05-24T08:14:30;11.53;;;5.13;;
12228;SDS011;6177;52.402;9.800;2023-05-24T08:16:55;14.23;;;5.87;;
12228;SDS011;6177;52.402;9.800;2023-05-24T08:19:21;11.73;;;5.13;;
12228;SDS011;6177;52.402;9.800;2023-05-24T08:21:47;15.90;;;5.80;;
12228;SDS011;6177;52.402;9.800;2023-05-24T08:24:13;18.37;;;6.43;;
12228;SDS011;6177;52.402;9.800;2023-05-24T08:26:38;12.13;;;5.90;;
12228;SDS011;6177;52.402;9.800;2023-05-24T08:29:04;11.23;;;5.30;;
12228;SDS011;6177;52.402;9.800;2023-05-24T08:31:30;12.87;;;5.70;;
12228;SDS011;6177;52.402;9.800;2023-05-24T08:33:57;12.77;;;5.23;;
12228;SDS011;6177;52.402;9.800;2023-05-24T08:36:23;10.60;;;5.07;;
12228;SDS011;6177;52.402;9.800;2023-05-24T08:38:49;14.33;;;5.77;;
12228;SDS011;6177;52.402;9.800;2023-05-24T08:41:14;16.20;;;6.30;;
12228;SDS011;6177;52.402;9.800;2023-05-24T08:43:40;12.20;;;5.90;;
12228;SDS011;6177;52.402;9.800;2023-05-24T08:46:06;16.10;;;5.63;;
12228;SDS011;6177;52.402;9.800;2023-05-24T08:48:33;12.27;;;5.27;;
12228;SDS011;6177;52.402;9.800;2023-05-24T08:51:00;12.30;;;5.93;;
12228;SDS011;6177;52.402;9.800;2023-05-24T08:53:26;14.60;;;6.07;;
12228;SDS011;6177;52.402;9.800;2023-05-24T08:55:52;18.53;;;6.23;;
12228;SDS011;6177;52.402;9.800;2023-05-24T08:58:18;14.27;;;5.53;;
12228;SDS011;6177;52.402;9.800;2023-05-24T09:00:44;12.50;;;5.33;;
12228;SDS011;6177;52.402;9.800;2023-05-24T09:03:10;15.50;;;5.90;;
12228;SDS011;6177;52.402;9.800;2023-05-24T09:05:36;11.73;;;5.40;;
12228;SDS011;6177;52.402;9.800;2023-05-24T09:08:01;14.03;;;5.97;;
12228;SDS011;6177;52.402;9.800;2023-05-24T09:10:27;11.63;;;5.03;;
12228;SDS011;6177;52.402;9.800;2023-05-24T09:12:56;15.17;;;5.77;;
12228;SDS011;6177;52.402;9.800;2023-05-24T09:15:22;11.67;;;5.73;;
12228;SDS011;6177;52.402;9.800;2023-05-24T09:17:48;12.63;;;5.33;;
12228;SDS011;6177;52.402;9.800;2023-05-24T09:20:13;14.07;;;5.67;;
12228;SDS011;6177;52.402;9.800;2023-05-24T09:22:40;11.83;;;5.63;;
12228;SDS011;6177;52.402;9.800;2023-05-24T09:25:06;12.03;;;5.80;;
12228;SDS011;6177;52.402;9.800;2023-05-24T09:27:32;14.27;;;5.47;;
12228;SDS011;6177;52.402;9.800;2023-05-24T09:30:01;10.47;;;5.00;;
12228;SDS011;6177;52.402;9.800;2023-05-24T09:32:29;13.13;;;5.37;;
12228;SDS011;6177;52.402;9.800;2023-05-24T09:34:55;13.10;;;5.90;;
12228;SDS011;6177;52.402;9.800;2023-05-24T09:37:22;11.70;;;5.17;;
12228;SDS011;6177;52.402;9.800;2023-05-24T09:39:51;13.37;;;5.43;;
12228;SDS011;6177;52.402;9.800;2023-05-24T09:42:17;13.07;;;5.50;;
12228;SDS011;6177;52.402;9.800;2023-05-24T09:47:28;15.30;;;5.23;;
12228;SDS011;6177;52.402;9.800;2023-05-24T09:49:55;12.50;;;5.00;;
12228;SDS011;6177;52.402;9.800;2023-05-24T09:52:20;11.27;;;4.87;;
12228;SDS011;6177;52.402;9.800;2023-05-24T09:54:46;11.97;;;4.97;;
12228;SDS011;6177;52.402;9.800;2023-05-24T09:57:14;13.27;;;5.50;;
12228;SDS011;6177;52.402;9.800;2023-05-24T09:59:41;12.80;;;6.87;;
12228;SDS011;6177;52.402;9.800;2023-05-24T10:02:10;13.63;;;5.87;;
12228;SDS011;6177;52.402;9.800;2023-05-24T10:04:37;13.73;;;5.73;;
12228;SDS011;6177;52.402;9.800;2023-05-24T10:07:03;12.93;;;5.33;;
12228;SDS011;6177;52.402;9.800;2023-05-24T10:09:30;13.67;;;5.67;;
12228;SDS011;6177;52.402;9.800;2023-05-24T10:12:02;15.67;;;6.73;;
12228;SDS011;6177;52.402;9.800;2023-05-24T10:14:30;10.83;;;5.77;;
12228;SDS011;6177;52.402;9.800;2023-05-24T10:17:00;10.73;;;5.30;;
12228;SDS011;6177;52.402;9.800;2023-05-24T10:19:29;10.97;;;6.87;;
12228;SDS011;6177;52.402;9.800;2023-05-24T10:21:54;13.93;;;6.03;;
12228;SDS011;6177;52.402;9.800;2023-05-24T10:24:23;11.87;;;5.90;;
12228;SDS011;6177;52.402;9.800;2023-05-24T10:26:50;12.80;;;6.50;;
12228;SDS011;6177;52.402;9.800;2023-05-24T10:29:20;11.80;;;6.77;;
12228;SDS011;6177;52.402;9.800;2023-05-24T10:31:52;15.20;;;6.50;;
12228;SDS011;6177;52.402;9.800;2023-05-24T10:34:18;11.87;;;7.07;;
12228;SDS011;6177;52.402;9.800;2023-05-24T10:36:44;14.23;;;7.77;;
12228;SDS011;6177;52.402;9.800;2023-05-24T10:39:10;13.70;;;6.63;;
12228;SDS011;6177;52.402;9.800;2023-05-24T10:41:40;12.93;;;6.43;;
12228;SDS011;6177;52.402;9.800;2023-05-24T10:44:11;14.07;;;6.87;;
12228;SDS011;6177;52.402;9.800;2023-05-24T10:49:35;12.57;;;5.83;;
12228;SDS011;6177;52.402;9.800;2023-05-24T10:52:01;10.43;;;5.87;;
12228;SDS011;6177;52.402;9.800;2023-05-24T10:54:32;11.47;;;6.27;;
12228;SDS011;6177;52.402;9.800;2023-05-24T10:56:59;10.10;;;6.37;;
12228;SDS011;6177;52.402;9.800;2023-05-24T10:59:29;11.00;;;6.23;;
12228;SDS011;6177;52.402;9.800;2023-05-24T11:02:02;15.30;;;6.20;;
12228;SDS011;6177;52.402;9.800;2023-05-24T11:04:37;13.87;;;6.00;;
12228;SDS011;6177;52.402;9.800;2023-05-24T11:07:04;12.03;;;5.70;;
12228;SDS011;6177;52.402;9.800;2023-05-24T11:09:33;10.57;;;5.23;;
12228;SDS011;6177;52.402;9.800;2023-05-24T11:12:05;12.10;;;5.57;;
12228;SDS011;6177;52.402;9.800;2023-05-24T11:14:33;14.97;;;6.27;;
12228;SDS011;6177;52.402;9.800;2023-05-24T11:17:06;10.40;;;5.53;;
12228;SDS011;6177;52.402;9.800;2023-05-24T11:19:33;12.73;;;6.63;;
12228;SDS011;6177;52.402;9.800;2023-05-24T11:22:01;10.17;;;6.53;;
12228;SDS011;6177;52.402;9.800;2023-05-24T11:24:28;10.67;;;5.60;;
12228;SDS011;6177;52.402;9.800;2023-05-24T11:26:54;12.73;;;6.57;;
12228;SDS011;6177;52.402;9.800;2023-05-24T11:29:21;14.87;;;6.70;;
12228;SDS011;6177;52.402;9.800;2023-05-24T11:31:53;12.03;;;6.10;;
12228;SDS011;6177;52.402;9.800;2023-05-24T11:34:28;15.87;;;6.70;;
12228;SDS011;6177;52.402;9.800;2023-05-24T11:36:54;13.40;;;5.97;;
12228;SDS011;6177;52.402;9.800;2023-05-24T11:39:20;14.07;;;6.73;;
12228;SDS011;6177;52.402;9.800;2023-05-24T11:41:47;13.47;;;6.37;;
12228;SDS011;6177;52.402;9.800;2023-05-24T11:44:15;17.90;;;6.53;;
12228;SDS011;6177;52.402;9.800;2023-05-24T11:46:41;15.90;;;6.37;;
12228;SDS011;6177;52.402;9.800;2023-05-24T11:49:10;11.50;;;5.67;;
12228;SDS011;6177;52.402;9.800;2023-05-24T11:51:37;16.53;;;6.17;;
12228;SDS011;6177;52.402;9.800;2023-05-24T11:54:02;16.17;;;6.47;;
12228;SDS011;6177;52.402;9.800;2023-05-24T11:56:29;16.13;;;6.43;;
12228;SDS011;6177;52.402;9.800;2023-05-24T11:59:01;11.80;;;6.30;;
12228;SDS011;6177;52.402;9.800;2023-05-24T12:01:35;14.57;;;5.83;;
12228;SDS011;6177;52.402;9.800;2023-05-24T12:04:03;13.90;;;6.17;;
12228;SDS011;6177;52.402;9.800;2023-05-24T12:06:33;14.97;;;6.53;;
12228;SDS011;6177;52.402;9.800;2023-05-24T12:09:03;15.67;;;6.20;;
12228;SDS011;6177;52.402;9.800;2023-05-24T12:11:33;14.23;;;6.50;;
12228;SDS011;6177;52.402;9.800;2023-05-24T12:14:41;14.73;;;5.97;;
12228;SDS011;6177;52.402;9.800;2023-05-24T12:17:00;13.83;;;6.03;;
12228;SDS011;6177;52.402;9.800;2023-05-24T12:19:29;15.33;;;6.77;;
12228;SDS011;6177;52.402;9.800;2023-05-24T12:21:58;11.50;;;6.27;;
12228;SDS011;6177;52.402;9.800;2023-05-24T12:24:25;10.57;;;6.67;;
12228;SDS011;6177;52.402;9.800;2023-05-24T12:26:51;14.10;;;6.43;;
12228;SDS011;6177;52.402;9.800;2023-05-24T12:29:22;10.40;;;5.83;;
12228;SDS011;6177;52.402;9.800;2023-05-24T12:31:48;13.10;;;6.03;;
12228;SDS011;6177;52.402;9.800;2023-05-24T12:34:17;10.90;;;5.57;;
12228;SDS011;6177;52.402;9.800;2023-05-24T12:36:44;11.37;;;6.03;;
12228;SDS011;6177;52.402;9.800;2023-05-24T12:41:42;7.93;;;4.78;;
12228;SDS011;6177;52.402;9.800;2023-05-24T12:44:08;8.30;;;5.28;;
12228;SDS011;6177;52.402;9.800;2023-05-24T12:46:34;9.55;;;5.45;;
12228;SDS011;6177;52.402;9.800;2023-05-24T12:49:00;10.98;;;5.78;;
12228;SDS011;6177;52.402;9.800;2023-05-24T12:51:29;9.43;;;5.30;;
12228;SDS011;6177;52.402;9.800;2023-05-24T12:53:54;7.75;;;4.72;;
12228;SDS011;6177;52.402;9.800;2023-05-24T12:56:20;9.02;;;5.00;;
12228;SDS011;6177;52.402;9.800;2023-05-24T12:58:46;6.10;;;4.43;;
12228;SDS011;6177;52.402;9.800;2023-05-24T13:01:12;6.80;;;4.82;;
12228;SDS011;6177;52.402;9.800;2023-05-24T13:03:38;8.10;;;4.60;;
12228;SDS011;6177;52.402;9.800;2023-05-24T13:06:04;8.57;;;4.47;;
12228;SDS011;6177;52.402;9.800;2023-05-24T13:08:30;6.75;;;4.57;;
12228;SDS011;6177;52.402;9.800;2023-05-24T13:10:55;7.15;;;4.90;;
12228;SDS011;6177;52.402;9.800;2023-05-24T13:13:21;5.97;;;4.03;;
12228;SDS011;6177;52.402;9.800;2023-05-24T13:15:48;8.43;;;4.35;;
12228;SDS011;6177;52.402;9.800;2023-05-24T13:18:14;5.70;;;4.15;;
12228;SDS011;6177;52.402;9.800;2023-05-24T13:20:40;6.00;;;4.70;;
12228;SDS011;6177;52.402;9.800;2023-05-24T13:23:05;7.18;;;4.80;;
12228;SDS011;6177;52.402;9.800;2023-05-24T13:25:31;6.65;;;4.13;;
12228;SDS011;6177;52.402;9.800;2023-05-24T13:27:57;6.45;;;4.50;;
12228;SDS011;6177;52.402;9.800;2023-05-24T13:30:23;6.60;;;4.00;;
12228;SDS011;6177;52.402;9.800;2023-05-24T13:32:52;6.93;;;3.80;;
12228;SDS011;6177;52.402;9.800;2023-05-24T13:35:19;5.38;;;4.50;;
12228;SDS011;6177;52.402;9.800;2023-05-24T13:37:46;5.47;;;4.25;;
12228;SDS011;6177;52.402;9.800;2023-05-24T13:40:11;6.63;;;4.40;;
12228;SDS011;6177;52.402;9.800;2023-05-24T13:42:37;5.25;;;4.30;;
12228;SDS011;6177;52.402;9.800;2023-05-24T13:45:03;7.15;;;4.30;;
12228;SDS011;6177;52.402;9.800;2023-05-24T13:47:28;7.03;;;3.75;;
12228;SDS011;6177;52.402;9.800;2023-05-24T13:49:54;6.88;;;3.50;;
12228;SDS011;6177;52.402;9.800;2023-05-24T13:52:20;5.53;;;3.97;;
12228;SDS011;6177;52.402;9.800;2023-05-24T13:54:46;4.43;;;3.95;;
12228;SDS011;6177;52.402;9.800;2023-05-24T13:57:13;6.20;;;3.63;;
12228;SDS011;6177;52.402;9.800;2023-05-24T13:59:39;6.45;;;3.90;;
12228;SDS011;6177;52.402;9.800;2023-05-24T14:02:04;5.60;;;4.05;;
12228;SDS011;6177;52.402;9.800;2023-05-24T14:04:30;4.78;;;3.53;;
12228;SDS011;6177;52.402;9.800;2023-05-24T14:06:55;5.90;;;3.30;;
12228;SDS011;6177;52.402;9.800;2023-05-24T14:09:21;4.20;;;3.80;;
12228;SDS011;6177;52.402;9.800;2023-05-24T14:11:47;6.07;;;4.15;;
12228;SDS011;6177;52.402;9.800;2023-05-24T14:14:13;4.03;;;3.63;;
12228;SDS011;6177;52.402;9.800;2023-05-24T14:16:38;5.88;;;3.92;;
12228;SDS011;6177;52.402;9.800;2023-05-24T14:19:04;4.63;;;4.05;;
12228;SDS011;6177;52.402;9.800;2023-05-24T14:21:29;8.77;;;4.13;;
12228;SDS011;6177;52.402;9.800;2023-05-24T14:23:56;5.40;;;4.30;;
12228;SDS011;6177;52.402;9.800;2023-05-24T14:26:21;10.57;;;4.93;;
12228;SDS011;6177;52.402;9.800;2023-05-24T14:28:47;10.20;;;5.18;;
12228;SDS011;6177;52.402;9.800;2023-05-24T14:31:13;6.43;;;4.65;;
12228;SDS011;6177;52.402;9.800;2023-05-24T14:33:38;5.22;;;4.55;;
12228;SDS011;6177;52.402;9.800;2023-05-24T14:36:04;7.50;;;4.33;;
12228;SDS011;6177;52.402;9.800;2023-05-24T14:38:30;8.30;;;4.18;;
12228;SDS011;6177;52.402;9.800;2023-05-24T14:40:55;9.02;;;3.90;;
12228;SDS011;6177;52.402;9.800;2023-05-24T14:43:22;5.90;;;3.63;;
12228;SDS011;6177;52.402;9.800;2023-05-24T14:45:48;7.65;;;4.53;;
12228;SDS011;6177;52.402;9.800;2023-05-24T14:48:14;10.57;;;4.93;;
12228;SDS011;6177;52.402;9.800;2023-05-24T14:50:40;6.75;;;3.70;;
12228;SDS011;6177;52.402;9.800;2023-05-24T14:53:07;8.15;;;4.07;;
12228;SDS011;6177;52.402;9.800;2023-05-24T14:55:36;7.82;;;4.15;;
12228;SDS011;6177;52.402;9.800;2023-05-24T14:58:02;8.40;;;4.30;;
12228;SDS011;6177;52.402;9.800;2023-05-24T15:00:27;10.30;;;4.57;;
12228;SDS011;6177;52.402;9.800;2023-05-24T15:02:53;8.43;;;4.03;;
12228;SDS011;6177;52.402;9.800;2023-05-24T15:05:19;10.90;;;4.60;;
12228;SDS011;6177;52.402;9.800;2023-05-24T15:07:44;10.13;;;4.87;;